• Join FlightAware (Why Join?)
  • Login
  • US Flag 
11:29PM EDT


 

Airport Tracker/Info


-or-


 

Live Flight TrackerFlight Track Log ✈ ASQ5506 ✈ 09-Apr-2013 ✈ KMGM - KATL

Flight Track Log - Related Links

Times and Time Zones

All times are in EDT time to prevent confusion due to time zone crossing. See the ASQ5506 flight status page for this flight to view local times or setup timezone preferences in your user account.

Time Position Orientation Groundspeed Altitude Reporting Facility
EDT Latitude Longitude Course Direction KTS MPH feet Rate Location/Type
07:29PM 32.3269 -86.3028 63° Northeast 191 220 4,900  Level Atlanta Center
07:30PM 32.3764 -86.2303 51° Northeast 239 275 7,600 2,280 Climbing Atlanta Center
07:32PM 32.4942 -86.0558 51° Northeast 324 373 11,900 1,980 Climbing Atlanta Center
07:33PM 32.5606 -85.9539 52° Northeast 368 423 13,600 1,500 Climbing Atlanta Center
07:34PM 32.5627 -85.9512 55° Northeast  Level FlightAware Approximate
07:34PM 32.6289 -85.8492 52° Northeast 392 451 15,000  Level Atlanta Center
07:35PM 32.7014 -85.7397 52° Northeast 404 465 14,900 -60 Descending Atlanta Center
07:36PM 32.7736 -85.6297 52° Northeast 415 478 14,900  Level Atlanta Center
07:37PM 32.8461 -85.5200 52° Northeast 420 483 14,900  Level Atlanta Center
07:38PM 32.9142 -85.4172 52° Northeast 415 478 14,900  Level Atlanta Center
07:39PM 32.9756 -85.3214 53° Northeast 396 456 14,900  Level Atlanta Center
07:40PM 33.0308 -85.2331 53° Northeast 362 417 14,900 -420 Level Atlanta Center
07:41PM 33.0878 -85.1619 46° Northeast 328 377 14,100 -1,080 Descending Atlanta Center
07:42PM 33.1469 -85.0808 49° Northeast 316 364 12,800 -1,080 Descending Atlanta Center
07:43PM 33.2061 -85.0047 47° Northeast 316 364 12,000 -780 Descending Atlanta Center
07:44PM 33.2794 -84.9533 30° Northeast 311 358 11,300 -960 Descending Atlanta Center
07:45PM 33.3611 -84.9217 18° North 299 344 10,100 -1,200 Descending Atlanta Center
07:46PM 33.4425 -84.9200 North 292 336 9,000 -1,080 Descending Atlanta Center
07:47PM 33.5219 -84.9208 359° North 292 336 8,000 -1,020 Descending Atlanta Center
07:48PM 33.6000 -84.8667 30° Northeast 287 330 7,000 -540 Descending Atlanta TRACON
07:49PM 33.6333 -84.8167 51° Northeast 251 289 7,000 -300 Level Atlanta TRACON
07:50PM 33.6333 -84.7333 90° East 246 283 6,500 -960 Descending Atlanta TRACON
07:51PM 33.6333 -84.6667 90° East 223 257 5,100 -1,440 Descending Atlanta TRACON
07:52PM 33.6333 -84.6000 90° East 179 206 3,700 -1,260 Descending Atlanta TRACON
07:53PM 33.6333 -84.5333 90° East 166 191 2,600 -960 Descending Atlanta TRACON
07:54PM 33.6333 -84.5000 90° East 126 145 1,800 -780 Descending Atlanta TRACON
07:56PM 33.6367 -84.4279 87° East  Level Estimated
08:03PM 33.6367 -84.4279 261° West  Level Estimated
08:04PM 33.6367 -84.4279 261° West  Level Estimated